sensor_id;sensor_type;location;lat;lon;timestamp;P1;durP1;ratioP1;P2;durP2;ratioP2
62572;SDS011;48626;51.678;5.806;2023-05-16T00:01:51;19.40;;;3.22;;
62572;SDS011;48626;51.678;5.806;2023-05-16T00:04:18;16.13;;;3.33;;
62572;SDS011;48626;51.678;5.806;2023-05-16T00:06:44;14.38;;;3.28;;
62572;SDS011;48626;51.678;5.806;2023-05-16T00:09:09;9.98;;;3.20;;
62572;SDS011;48626;51.678;5.806;2023-05-16T00:11:35;9.65;;;3.13;;
62572;SDS011;48626;51.678;5.806;2023-05-16T00:14:01;13.88;;;3.22;;
62572;SDS011;48626;51.678;5.806;2023-05-16T00:16:26;15.48;;;3.38;;
62572;SDS011;48626;51.678;5.806;2023-05-16T00:18:54;11.27;;;2.88;;
62572;SDS011;48626;51.678;5.806;2023-05-16T00:21:21;12.63;;;3.50;;
62572;SDS011;48626;51.678;5.806;2023-05-16T00:23:47;15.57;;;3.30;;
62572;SDS011;48626;51.678;5.806;2023-05-16T00:26:13;21.88;;;3.60;;
62572;SDS011;48626;51.678;5.806;2023-05-16T00:28:39;20.98;;;3.47;;
62572;SDS011;48626;51.678;5.806;2023-05-16T00:31:04;18.92;;;3.47;;
62572;SDS011;48626;51.678;5.806;2023-05-16T00:33:30;11.60;;;3.13;;
62572;SDS011;48626;51.678;5.806;2023-05-16T00:35:56;11.43;;;3.15;;
62572;SDS011;48626;51.678;5.806;2023-05-16T00:38:21;10.82;;;2.95;;
62572;SDS011;48626;51.678;5.806;2023-05-16T00:40:48;12.98;;;3.47;;
62572;SDS011;48626;51.678;5.806;2023-05-16T00:43:14;14.60;;;3.03;;
62572;SDS011;48626;51.678;5.806;2023-05-16T00:45:40;12.23;;;3.03;;
62572;SDS011;48626;51.678;5.806;2023-05-16T00:48:05;13.13;;;3.72;;
62572;SDS011;48626;51.678;5.806;2023-05-16T00:50:33;21.25;;;3.55;;
62572;SDS011;48626;51.678;5.806;2023-05-16T00:52:59;14.98;;;3.38;;
62572;SDS011;48626;51.678;5.806;2023-05-16T00:55:24;12.63;;;3.25;;
62572;SDS011;48626;51.678;5.806;2023-05-16T00:57:51;18.13;;;3.80;;
62572;SDS011;48626;51.678;5.806;2023-05-16T01:00:16;13.05;;;2.95;;
62572;SDS011;48626;51.678;5.806;2023-05-16T01:02:43;14.55;;;3.08;;
62572;SDS011;48626;51.678;5.806;2023-05-16T01:05:10;15.80;;;3.08;;
62572;SDS011;48626;51.678;5.806;2023-05-16T01:07:37;13.63;;;2.60;;
62572;SDS011;48626;51.678;5.806;2023-05-16T01:10:03;11.63;;;3.03;;
62572;SDS011;48626;51.678;5.806;2023-05-16T01:12:35;16.77;;;3.33;;
62572;SDS011;48626;51.678;5.806;2023-05-16T01:15:09;14.85;;;3.60;;
62572;SDS011;48626;51.678;5.806;2023-05-16T01:17:49;14.13;;;3.00;;
62572;SDS011;48626;51.678;5.806;2023-05-16T01:23:05;14.82;;;3.20;;
62572;SDS011;48626;51.678;5.806;2023-05-16T01:28:20;14.48;;;2.92;;
62572;SDS011;48626;51.678;5.806;2023-05-16T01:30:47;11.77;;;2.92;;
62572;SDS011;48626;51.678;5.806;2023-05-16T01:33:15;12.80;;;3.10;;
62572;SDS011;48626;51.678;5.806;2023-05-16T01:35:51;18.55;;;3.33;;
62572;SDS011;48626;51.678;5.806;2023-05-16T01:38:25;13.57;;;3.15;;
62572;SDS011;48626;51.678;5.806;2023-05-16T01:41:07;17.27;;;3.30;;
62572;SDS011;48626;51.678;5.806;2023-05-16T01:43:45;18.52;;;3.45;;
62572;SDS011;48626;51.678;5.806;2023-05-16T01:46:18;19.85;;;3.63;;
62572;SDS011;48626;51.678;5.806;2023-05-16T01:51:32;16.48;;;3.40;;
62572;SDS011;48626;51.678;5.806;2023-05-16T01:54:04;12.68;;;3.53;;
62572;SDS011;48626;51.678;5.806;2023-05-16T01:56:33;14.07;;;3.55;;
62572;SDS011;48626;51.678;5.806;2023-05-16T01:59:01;14.65;;;3.00;;
62572;SDS011;48626;51.678;5.806;2023-05-16T02:01:29;13.65;;;3.00;;
62572;SDS011;48626;51.678;5.806;2023-05-16T02:03:55;20.10;;;3.10;;
62572;SDS011;48626;51.678;5.806;2023-05-16T02:06:21;15.35;;;3.50;;
62572;SDS011;48626;51.678;5.806;2023-05-16T02:08:48;12.90;;;3.72;;
62572;SDS011;48626;51.678;5.806;2023-05-16T02:11:14;12.77;;;4.07;;
62572;SDS011;48626;51.678;5.806;2023-05-16T02:13:39;10.38;;;3.03;;
62572;SDS011;48626;51.678;5.806;2023-05-16T02:16:05;17.50;;;3.47;;
62572;SDS011;48626;51.678;5.806;2023-05-16T02:18:31;17.38;;;3.20;;
62572;SDS011;48626;51.678;5.806;2023-05-16T02:20:56;12.77;;;3.00;;
62572;SDS011;48626;51.678;5.806;2023-05-16T02:23:22;13.18;;;2.67;;
62572;SDS011;48626;51.678;5.806;2023-05-16T02:25:47;13.98;;;2.90;;
62572;SDS011;48626;51.678;5.806;2023-05-16T02:28:13;18.05;;;3.78;;
62572;SDS011;48626;51.678;5.806;2023-05-16T02:30:39;15.63;;;3.00;;
62572;SDS011;48626;51.678;5.806;2023-05-16T02:33:05;15.38;;;3.35;;
62572;SDS011;48626;51.678;5.806;2023-05-16T02:35:30;17.67;;;3.55;;
62572;SDS011;48626;51.678;5.806;2023-05-16T02:37:56;14.70;;;3.35;;
62572;SDS011;48626;51.678;5.806;2023-05-16T02:40:22;13.57;;;2.92;;
62572;SDS011;48626;51.678;5.806;2023-05-16T02:42:47;17.75;;;3.97;;
62572;SDS011;48626;51.678;5.806;2023-05-16T02:45:13;9.75;;;2.70;;
62572;SDS011;48626;51.678;5.806;2023-05-16T02:47:38;11.23;;;3.05;;
62572;SDS011;48626;51.678;5.806;2023-05-16T02:50:04;18.67;;;3.25;;
62572;SDS011;48626;51.678;5.806;2023-05-16T02:52:30;18.17;;;3.45;;
62572;SDS011;48626;51.678;5.806;2023-05-16T02:54:56;13.80;;;2.78;;
62572;SDS011;48626;51.678;5.806;2023-05-16T02:57:21;18.05;;;3.10;;
62572;SDS011;48626;51.678;5.806;2023-05-16T02:59:47;11.80;;;2.95;;
62572;SDS011;48626;51.678;5.806;2023-05-16T03:02:13;16.40;;;3.10;;
62572;SDS011;48626;51.678;5.806;2023-05-16T03:04:38;15.75;;;3.30;;
62572;SDS011;48626;51.678;5.806;2023-05-16T03:07:04;21.88;;;3.65;;
62572;SDS011;48626;51.678;5.806;2023-05-16T03:09:29;15.90;;;2.70;;
62572;SDS011;48626;51.678;5.806;2023-05-16T03:11:55;14.15;;;3.10;;
62572;SDS011;48626;51.678;5.806;2023-05-16T03:14:21;16.40;;;3.38;;
62572;SDS011;48626;51.678;5.806;2023-05-16T03:16:46;14.02;;;2.60;;
62572;SDS011;48626;51.678;5.806;2023-05-16T03:19:13;17.80;;;3.30;;
62572;SDS011;48626;51.678;5.806;2023-05-16T03:21:38;9.20;;;2.50;;
62572;SDS011;48626;51.678;5.806;2023-05-16T03:24:04;12.32;;;2.85;;
62572;SDS011;48626;51.678;5.806;2023-05-16T03:26:30;11.15;;;2.85;;
62572;SDS011;48626;51.678;5.806;2023-05-16T03:28:56;12.10;;;2.90;;
62572;SDS011;48626;51.678;5.806;2023-05-16T03:31:21;16.48;;;3.25;;
62572;SDS011;48626;51.678;5.806;2023-05-16T03:33:47;13.80;;;3.15;;
62572;SDS011;48626;51.678;5.806;2023-05-16T03:36:13;12.88;;;3.00;;
62572;SDS011;48626;51.678;5.806;2023-05-16T03:38:38;14.02;;;2.92;;
62572;SDS011;48626;51.678;5.806;2023-05-16T03:41:04;13.93;;;2.92;;
62572;SDS011;48626;51.678;5.806;2023-05-16T03:43:30;11.95;;;2.95;;
62572;SDS011;48626;51.678;5.806;2023-05-16T03:45:55;10.35;;;2.85;;
62572;SDS011;48626;51.678;5.806;2023-05-16T03:48:21;16.58;;;3.08;;
62572;SDS011;48626;51.678;5.806;2023-05-16T03:50:47;12.75;;;3.17;;
62572;SDS011;48626;51.678;5.806;2023-05-16T03:53:13;14.35;;;3.13;;
62572;SDS011;48626;51.678;5.806;2023-05-16T03:55:38;19.20;;;2.88;;
62572;SDS011;48626;51.678;5.806;2023-05-16T03:58:04;23.42;;;3.30;;
62572;SDS011;48626;51.678;5.806;2023-05-16T04:00:30;11.15;;;2.92;;
62572;SDS011;48626;51.678;5.806;2023-05-16T04:02:55;11.90;;;3.17;;
62572;SDS011;48626;51.678;5.806;2023-05-16T04:05:21;10.18;;;2.45;;
62572;SDS011;48626;51.678;5.806;2023-05-16T04:07:47;15.05;;;3.10;;
62572;SDS011;48626;51.678;5.806;2023-05-16T04:10:12;10.52;;;2.65;;
62572;SDS011;48626;51.678;5.806;2023-05-16T04:12:38;14.38;;;2.60;;
62572;SDS011;48626;51.678;5.806;2023-05-16T04:15:04;13.38;;;3.08;;
62572;SDS011;48626;51.678;5.806;2023-05-16T04:17:30;12.48;;;3.05;;
62572;SDS011;48626;51.678;5.806;2023-05-16T04:19:56;19.70;;;3.38;;
62572;SDS011;48626;51.678;5.806;2023-05-16T04:22:22;12.23;;;2.88;;
62572;SDS011;48626;51.678;5.806;2023-05-16T04:24:47;13.63;;;3.00;;
62572;SDS011;48626;51.678;5.806;2023-05-16T04:27:13;12.70;;;3.25;;
62572;SDS011;48626;51.678;5.806;2023-05-16T04:29:39;14.88;;;2.92;;
62572;SDS011;48626;51.678;5.806;2023-05-16T04:32:05;14.40;;;3.28;;
62572;SDS011;48626;51.678;5.806;2023-05-16T04:34:31;9.38;;;2.85;;
62572;SDS011;48626;51.678;5.806;2023-05-16T04:36:58;13.50;;;3.20;;
62572;SDS011;48626;51.678;5.806;2023-05-16T04:39:24;12.50;;;2.58;;
62572;SDS011;48626;51.678;5.806;2023-05-16T04:41:50;13.20;;;3.28;;
62572;SDS011;48626;51.678;5.806;2023-05-16T04:44:16;14.85;;;2.78;;
62572;SDS011;48626;51.678;5.806;2023-05-16T04:46:42;20.33;;;3.05;;
62572;SDS011;48626;51.678;5.806;2023-05-16T04:49:07;13.60;;;3.10;;
62572;SDS011;48626;51.678;5.806;2023-05-16T04:51:35;14.18;;;2.97;;
62572;SDS011;48626;51.678;5.806;2023-05-16T04:54:00;12.15;;;2.78;;
62572;SDS011;48626;51.678;5.806;2023-05-16T04:56:26;13.85;;;2.90;;
62572;SDS011;48626;51.678;5.806;2023-05-16T04:58:52;16.25;;;3.20;;
62572;SDS011;48626;51.678;5.806;2023-05-16T05:01:18;11.55;;;2.92;;
62572;SDS011;48626;51.678;5.806;2023-05-16T05:03:44;17.70;;;3.53;;
62572;SDS011;48626;51.678;5.806;2023-05-16T05:06:10;12.57;;;2.60;;
62572;SDS011;48626;51.678;5.806;2023-05-16T05:08:36;14.65;;;3.40;;
62572;SDS011;48626;51.678;5.806;2023-05-16T05:11:01;17.52;;;3.03;;
62572;SDS011;48626;51.678;5.806;2023-05-16T05:13:27;10.75;;;2.92;;
62572;SDS011;48626;51.678;5.806;2023-05-16T05:15:53;10.70;;;3.25;;
62572;SDS011;48626;51.678;5.806;2023-05-16T05:18:19;12.13;;;2.88;;
62572;SDS011;48626;51.678;5.806;2023-05-16T05:20:44;12.57;;;3.30;;
62572;SDS011;48626;51.678;5.806;2023-05-16T05:23:10;16.40;;;3.15;;
62572;SDS011;48626;51.678;5.806;2023-05-16T05:25:36;17.55;;;3.85;;
62572;SDS011;48626;51.678;5.806;2023-05-16T05:28:02;14.70;;;3.15;;
62572;SDS011;48626;51.678;5.806;2023-05-16T05:30:28;17.00;;;3.67;;
62572;SDS011;48626;51.678;5.806;2023-05-16T05:32:54;17.02;;;3.47;;
62572;SDS011;48626;51.678;5.806;2023-05-16T05:35:20;11.95;;;3.28;;
62572;SDS011;48626;51.678;5.806;2023-05-16T05:37:45;11.60;;;3.17;;
62572;SDS011;48626;51.678;5.806;2023-05-16T05:40:11;20.08;;;4.05;;
62572;SDS011;48626;51.678;5.806;2023-05-16T05:42:37;11.82;;;3.22;;
62572;SDS011;48626;51.678;5.806;2023-05-16T05:45:03;13.52;;;3.75;;
62572;SDS011;48626;51.678;5.806;2023-05-16T05:47:29;13.65;;;3.40;;
62572;SDS011;48626;51.678;5.806;2023-05-16T05:49:55;11.15;;;2.85;;
62572;SDS011;48626;51.678;5.806;2023-05-16T05:52:21;15.48;;;3.03;;
62572;SDS011;48626;51.678;5.806;2023-05-16T05:54:47;11.13;;;2.78;;
62572;SDS011;48626;51.678;5.806;2023-05-16T05:57:12;19.17;;;2.90;;
62572;SDS011;48626;51.678;5.806;2023-05-16T05:59:38;12.73;;;3.08;;
62572;SDS011;48626;51.678;5.806;2023-05-16T06:02:04;10.90;;;2.47;;
62572;SDS011;48626;51.678;5.806;2023-05-16T06:04:31;14.82;;;3.30;;
62572;SDS011;48626;51.678;5.806;2023-05-16T06:06:57;13.50;;;3.40;;
62572;SDS011;48626;51.678;5.806;2023-05-16T06:09:23;12.73;;;2.85;;
62572;SDS011;48626;51.678;5.806;2023-05-16T06:11:49;13.85;;;3.20;;
62572;SDS011;48626;51.678;5.806;2023-05-16T06:14:14;11.70;;;2.97;;
62572;SDS011;48626;51.678;5.806;2023-05-16T06:16:40;13.60;;;3.05;;
62572;SDS011;48626;51.678;5.806;2023-05-16T06:19:06;11.25;;;3.38;;
62572;SDS011;48626;51.678;5.806;2023-05-16T06:21:32;12.57;;;3.13;;
62572;SDS011;48626;51.678;5.806;2023-05-16T06:23:58;17.83;;;3.30;;
62572;SDS011;48626;51.678;5.806;2023-05-16T06:26:24;10.30;;;2.78;;
62572;SDS011;48626;51.678;5.806;2023-05-16T06:28:49;12.48;;;2.72;;
62572;SDS011;48626;51.678;5.806;2023-05-16T06:31:15;17.83;;;3.00;;
62572;SDS011;48626;51.678;5.806;2023-05-16T06:33:40;14.65;;;2.83;;
62572;SDS011;48626;51.678;5.806;2023-05-16T06:36:06;14.70;;;2.80;;
62572;SDS011;48626;51.678;5.806;2023-05-16T06:38:32;11.27;;;2.72;;
62572;SDS011;48626;51.678;5.806;2023-05-16T06:40:58;13.77;;;2.67;;
62572;SDS011;48626;51.678;5.806;2023-05-16T06:43:23;14.95;;;2.90;;
62572;SDS011;48626;51.678;5.806;2023-05-16T06:45:49;14.40;;;2.70;;
62572;SDS011;48626;51.678;5.806;2023-05-16T06:48:16;10.98;;;2.60;;
62572;SDS011;48626;51.678;5.806;2023-05-16T06:50:42;14.05;;;2.80;;
62572;SDS011;48626;51.678;5.806;2023-05-16T06:53:11;17.98;;;3.15;;
62572;SDS011;48626;51.678;5.806;2023-05-16T06:55:37;14.13;;;2.90;;
62572;SDS011;48626;51.678;5.806;2023-05-16T06:58:02;11.35;;;2.45;;
62572;SDS011;48626;51.678;5.806;2023-05-16T07:00:28;9.05;;;2.40;;
62572;SDS011;48626;51.678;5.806;2023-05-16T07:02:54;13.57;;;2.50;;
62572;SDS011;48626;51.678;5.806;2023-05-16T07:05:19;10.40;;;2.90;;
62572;SDS011;48626;51.678;5.806;2023-05-16T07:07:45;11.07;;;2.40;;
62572;SDS011;48626;51.678;5.806;2023-05-16T07:10:11;11.50;;;2.97;;
62572;SDS011;48626;51.678;5.806;2023-05-16T07:12:40;10.43;;;3.00;;
62572;SDS011;48626;51.678;5.806;2023-05-16T07:15:06;10.98;;;2.58;;
62572;SDS011;48626;51.678;5.806;2023-05-16T07:17:32;10.98;;;3.05;;
62572;SDS011;48626;51.678;5.806;2023-05-16T07:19:58;10.32;;;2.42;;
62572;SDS011;48626;51.678;5.806;2023-05-16T07:22:24;19.02;;;2.92;;
62572;SDS011;48626;51.678;5.806;2023-05-16T07:24:49;11.95;;;2.80;;
62572;SDS011;48626;51.678;5.806;2023-05-16T07:27:17;12.73;;;3.08;;
62572;SDS011;48626;51.678;5.806;2023-05-16T07:29:42;9.93;;;2.45;;
62572;SDS011;48626;51.678;5.806;2023-05-16T07:32:08;12.85;;;2.80;;
62572;SDS011;48626;51.678;5.806;2023-05-16T07:34:34;11.73;;;2.90;;
62572;SDS011;48626;51.678;5.806;2023-05-16T07:36:59;14.88;;;2.80;;
62572;SDS011;48626;51.678;5.806;2023-05-16T07:39:25;9.60;;;2.72;;
62572;SDS011;48626;51.678;5.806;2023-05-16T07:41:51;13.00;;;2.60;;
62572;SDS011;48626;51.678;5.806;2023-05-16T07:44:16;13.45;;;2.78;;
62572;SDS011;48626;51.678;5.806;2023-05-16T07:46:42;11.82;;;2.80;;
62572;SDS011;48626;51.678;5.806;2023-05-16T07:49:08;8.27;;;2.50;;
62572;SDS011;48626;51.678;5.806;2023-05-16T07:51:34;9.82;;;2.17;;
62572;SDS011;48626;51.678;5.806;2023-05-16T07:54:00;6.90;;;2.17;;
62572;SDS011;48626;51.678;5.806;2023-05-16T07:56:26;6.03;;;2.00;;
62572;SDS011;48626;51.678;5.806;2023-05-16T07:58:52;11.85;;;2.60;;
62572;SDS011;48626;51.678;5.806;2023-05-16T08:01:18;8.27;;;2.45;;
62572;SDS011;48626;51.678;5.806;2023-05-16T08:03:44;12.48;;;2.25;;
62572;SDS011;48626;51.678;5.806;2023-05-16T08:06:10;11.32;;;2.47;;
62572;SDS011;48626;51.678;5.806;2023-05-16T08:08:36;12.00;;;2.20;;
62572;SDS011;48626;51.678;5.806;2023-05-16T08:11:02;7.78;;;2.28;;
62572;SDS011;48626;51.678;5.806;2023-05-16T08:13:29;8.90;;;2.35;;
62572;SDS011;48626;51.678;5.806;2023-05-16T08:15:55;6.15;;;2.50;;
62572;SDS011;48626;51.678;5.806;2023-05-16T08:18:21;9.02;;;2.38;;
62572;SDS011;48626;51.678;5.806;2023-05-16T08:20:47;6.00;;;2.00;;
62572;SDS011;48626;51.678;5.806;2023-05-16T08:23:12;8.90;;;2.28;;
62572;SDS011;48626;51.678;5.806;2023-05-16T08:25:38;9.10;;;2.20;;
62572;SDS011;48626;51.678;5.806;2023-05-16T08:28:04;7.10;;;1.77;;
62572;SDS011;48626;51.678;5.806;2023-05-16T08:30:30;10.73;;;2.60;;
62572;SDS011;48626;51.678;5.806;2023-05-16T08:32:56;6.80;;;2.30;;
62572;SDS011;48626;51.678;5.806;2023-05-16T08:35:21;6.97;;;2.00;;
62572;SDS011;48626;51.678;5.806;2023-05-16T08:37:47;10.38;;;2.63;;
62572;SDS011;48626;51.678;5.806;2023-05-16T08:40:13;6.70;;;1.85;;
62572;SDS011;48626;51.678;5.806;2023-05-16T08:42:39;7.88;;;1.75;;
62572;SDS011;48626;51.678;5.806;2023-05-16T08:45:05;9.48;;;2.05;;
62572;SDS011;48626;51.678;5.806;2023-05-16T08:47:32;9.02;;;1.98;;
62572;SDS011;48626;51.678;5.806;2023-05-16T08:50:02;4.20;;;1.70;;
62572;SDS011;48626;51.678;5.806;2023-05-16T08:52:28;6.28;;;1.70;;
62572;SDS011;48626;51.678;5.806;2023-05-16T08:54:58;4.07;;;1.80;;
62572;SDS011;48626;51.678;5.806;2023-05-16T08:57:32;5.95;;;1.98;;
62572;SDS011;48626;51.678;5.806;2023-05-16T08:59:58;6.82;;;1.75;;
62572;SDS011;48626;51.678;5.806;2023-05-16T09:02:25;9.10;;;2.00;;
62572;SDS011;48626;51.678;5.806;2023-05-16T09:04:52;7.18;;;2.30;;
62572;SDS011;48626;51.678;5.806;2023-05-16T09:07:21;5.47;;;1.80;;
62572;SDS011;48626;51.678;5.806;2023-05-16T09:09:47;12.10;;;2.55;;
62572;SDS011;48626;51.678;5.806;2023-05-16T09:12:13;6.68;;;2.00;;
62572;SDS011;48626;51.678;5.806;2023-05-16T09:14:38;5.97;;;2.15;;
62572;SDS011;48626;51.678;5.806;2023-05-16T09:17:08;7.60;;;2.42;;
62572;SDS011;48626;51.678;5.806;2023-05-16T09:19:43;7.93;;;2.20;;
62572;SDS011;48626;51.678;5.806;2023-05-16T09:22:12;10.88;;;2.35;;
62572;SDS011;48626;51.678;5.806;2023-05-16T09:27:06;4.82;;;1.83;;
62572;SDS011;48626;51.678;5.806;2023-05-16T09:29:42;5.68;;;1.80;;
62572;SDS011;48626;51.678;5.806;2023-05-16T09:32:12;4.68;;;2.05;;
62572;SDS011;48626;51.678;5.806;2023-05-16T09:34:43;7.40;;;1.73;;
62572;SDS011;48626;51.678;5.806;2023-05-16T09:37:10;8.70;;;2.00;;
62572;SDS011;48626;51.678;5.806;2023-05-16T09:39:45;8.85;;;1.83;;
62572;SDS011;48626;51.678;5.806;2023-05-16T09:42:15;5.13;;;1.75;;
62572;SDS011;48626;51.678;5.806;2023-05-16T09:44:45;5.25;;;1.90;;
62572;SDS011;48626;51.678;5.806;2023-05-16T09:47:17;12.85;;;2.13;;
62572;SDS011;48626;51.678;5.806;2023-05-16T09:49:46;5.20;;;1.63;;
62572;SDS011;48626;51.678;5.806;2023-05-16T09:52:16;7.25;;;1.80;;
62572;SDS011;48626;51.678;5.806;2023-05-16T09:54:42;3.38;;;1.63;;
62572;SDS011;48626;51.678;5.806;2023-05-16T09:57:10;4.47;;;1.75;;
62572;SDS011;48626;51.678;5.806;2023-05-16T09:59:36;6.32;;;1.95;;
62572;SDS011;48626;51.678;5.806;2023-05-16T10:02:04;7.93;;;1.92;;
62572;SDS011;48626;51.678;5.806;2023-05-16T10:04:32;6.75;;;1.90;;
62572;SDS011;48626;51.678;5.806;2023-05-16T10:07:02;10.70;;;2.15;;
62572;SDS011;48626;51.678;5.806;2023-05-16T10:09:30;7.45;;;2.33;;
62572;SDS011;48626;51.678;5.806;2023-05-16T10:11:57;4.97;;;2.10;;
62572;SDS011;48626;51.678;5.806;2023-05-16T10:14:28;10.35;;;2.33;;
62572;SDS011;48626;51.678;5.806;2023-05-16T10:16:57;7.40;;;2.67;;
62572;SDS011;48626;51.678;5.806;2023-05-16T10:19:22;7.63;;;2.58;;
62572;SDS011;48626;51.678;5.806;2023-05-16T10:21:50;8.88;;;2.15;;
62572;SDS011;48626;51.678;5.806;2023-05-16T10:24:23;5.45;;;2.10;;
62572;SDS011;48626;51.678;5.806;2023-05-16T10:26:55;19.67;;;3.03;;
62572;SDS011;48626;51.678;5.806;2023-05-16T10:29:20;9.75;;;2.60;;
62572;SDS011;48626;51.678;5.806;2023-05-16T10:31:47;6.60;;;2.13;;
62572;SDS011;48626;51.678;5.806;2023-05-16T10:34:14;10.15;;;2.30;;
62572;SDS011;48626;51.678;5.806;2023-05-16T10:36:41;8.48;;;2.70;;
62572;SDS011;48626;51.678;5.806;2023-05-16T10:39:08;9.10;;;2.40;;
62572;SDS011;48626;51.678;5.806;2023-05-16T10:41:34;11.13;;;2.58;;
62572;SDS011;48626;51.678;5.806;2023-05-16T10:44:00;7.07;;;2.08;;
62572;SDS011;48626;51.678;5.806;2023-05-16T10:46:26;7.85;;;2.25;;
62572;SDS011;48626;51.678;5.806;2023-05-16T10:48:55;7.32;;;2.70;;
62572;SDS011;48626;51.678;5.806;2023-05-16T10:53:47;6.32;;;2.20;;
62572;SDS011;48626;51.678;5.806;2023-05-16T10:56:15;12.10;;;2.40;;
62572;SDS011;48626;51.678;5.806;2023-05-16T10:58:51;7.78;;;2.15;;
62572;SDS011;48626;51.678;5.806;2023-05-16T11:01:19;8.63;;;2.15;;
62572;SDS011;48626;51.678;5.806;2023-05-16T11:06:24;6.70;;;2.10;;
62572;SDS011;48626;51.678;5.806;2023-05-16T11:14:26;8.60;;;2.00;;
62572;SDS011;48626;51.678;5.806;2023-05-16T11:17:13;5.55;;;2.05;;
62572;SDS011;48626;51.678;5.806;2023-05-16T11:19:47;7.78;;;2.33;;
62572;SDS011;48626;51.678;5.806;2023-05-16T11:24:53;6.60;;;2.30;;
62572;SDS011;48626;51.678;5.806;2023-05-16T11:27:29;6.25;;;2.03;;
62572;SDS011;48626;51.678;5.806;2023-05-16T11:29:58;7.63;;;2.30;;
62572;SDS011;48626;51.678;5.806;2023-05-16T11:32:35;7.53;;;2.35;;
62572;SDS011;48626;51.678;5.806;2023-05-16T11:35:02;9.35;;;2.20;;
62572;SDS011;48626;51.678;5.806;2023-05-16T11:37:29;6.85;;;2.60;;
62572;SDS011;48626;51.678;5.806;2023-05-16T11:40:01;8.50;;;2.35;;
62572;SDS011;48626;51.678;5.806;2023-05-16T11:42:35;6.28;;;2.25;;
62572;SDS011;48626;51.678;5.806;2023-05-16T11:45:07;6.60;;;2.28;;
62572;SDS011;48626;51.678;5.806;2023-05-16T11:47:34;7.38;;;2.10;;
62572;SDS011;48626;51.678;5.806;2023-05-16T11:50:03;5.65;;;2.28;;
62572;SDS011;48626;51.678;5.806;2023-05-16T11:52:30;10.70;;;2.20;;
62572;SDS011;48626;51.678;5.806;2023-05-16T11:54:57;8.48;;;2.38;;
62572;SDS011;48626;51.678;5.806;2023-05-16T11:57:25;8.30;;;2.67;;
62572;SDS011;48626;51.678;5.806;2023-05-16T11:59:51;6.40;;;2.33;;
62572;SDS011;48626;51.678;5.806;2023-05-16T12:02:18;5.57;;;2.60;;
62572;SDS011;48626;51.678;5.806;2023-05-16T12:04:47;7.13;;;2.10;;
62572;SDS011;48626;51.678;5.806;2023-05-16T12:07:14;7.40;;;2.40;;
62572;SDS011;48626;51.678;5.806;2023-05-16T12:09:40;8.95;;;2.25;;
62572;SDS011;48626;51.678;5.806;2023-05-16T12:12:06;8.88;;;2.50;;
62572;SDS011;48626;51.678;5.806;2023-05-16T12:14:31;8.88;;;2.33;;
62572;SDS011;48626;51.678;5.806;2023-05-16T12:16:57;9.93;;;2.50;;
62572;SDS011;48626;51.678;5.806;2023-05-16T12:19:23;6.85;;;2.13;;
62572;SDS011;48626;51.678;5.806;2023-05-16T12:21:52;7.10;;;1.92;;
62572;SDS011;48626;51.678;5.806;2023-05-16T12:24:18;6.05;;;2.38;;
62572;SDS011;48626;51.678;5.806;2023-05-16T12:26:45;7.55;;;2.40;;
62572;SDS011;48626;51.678;5.806;2023-05-16T12:29:11;9.30;;;2.25;;
62572;SDS011;48626;51.678;5.806;2023-05-16T12:31:38;7.57;;;2.10;;
62572;SDS011;48626;51.678;5.806;2023-05-16T12:34:09;6.32;;;2.10;;
62572;SDS011;48626;51.678;5.806;2023-05-16T12:36:40;9.10;;;2.45;;
62572;SDS011;48626;51.678;5.806;2023-05-16T12:39:06;4.93;;;2.10;;
62572;SDS011;48626;51.678;5.806;2023-05-16T12:41:38;4.88;;;1.85;;
62572;SDS011;48626;51.678;5.806;2023-05-16T12:44:15;13.45;;;2.90;;
62572;SDS011;48626;51.678;5.806;2023-05-16T12:46:46;7.88;;;2.45;;
62572;SDS011;48626;51.678;5.806;2023-05-16T12:49:21;9.48;;;2.45;;
62572;SDS011;48626;51.678;5.806;2023-05-16T12:51:51;5.93;;;2.28;;
62572;SDS011;48626;51.678;5.806;2023-05-16T12:54:18;7.47;;;2.40;;
62572;SDS011;48626;51.678;5.806;2023-05-16T12:56:46;8.90;;;2.55;;
62572;SDS011;48626;51.678;5.806;2023-05-16T12:59:13;9.25;;;2.30;;
62572;SDS011;48626;51.678;5.806;2023-05-16T13:01:39;7.50;;;2.30;;
62572;SDS011;48626;51.678;5.806;2023-05-16T13:04:06;7.25;;;2.53;;
62572;SDS011;48626;51.678;5.806;2023-05-16T13:06:32;9.43;;;2.15;;
62572;SDS011;48626;51.678;5.806;2023-05-16T13:08:58;12.93;;;2.20;;
62572;SDS011;48626;51.678;5.806;2023-05-16T13:11:24;9.95;;;2.47;;
62572;SDS011;48626;51.678;5.806;2023-05-16T13:13:50;5.75;;;2.20;;
62572;SDS011;48626;51.678;5.806;2023-05-16T13:16:16;5.68;;;2.17;;
62572;SDS011;48626;51.678;5.806;2023-05-16T13:18:42;6.47;;;2.58;;
62572;SDS011;48626;51.678;5.806;2023-05-16T13:21:07;4.63;;;1.75;;
62572;SDS011;48626;51.678;5.806;2023-05-16T13:23:33;8.15;;;2.10;;
62572;SDS011;48626;51.678;5.806;2023-05-16T13:25:59;9.98;;;2.55;;
62572;SDS011;48626;51.678;5.806;2023-05-16T13:28:25;8.60;;;2.25;;
62572;SDS011;48626;51.678;5.806;2023-05-16T13:30:50;5.50;;;1.88;;
62572;SDS011;48626;51.678;5.806;2023-05-16T13:33:16;4.13;;;2.03;;
62572;SDS011;48626;51.678;5.806;2023-05-16T13:35:42;6.93;;;2.20;;
62572;SDS011;48626;51.678;5.806;2023-05-16T13:38:08;41.15;;;3.90;;
62572;SDS011;48626;51.678;5.806;2023-05-16T13:40:34;5.80;;;2.08;;
62572;SDS011;48626;51.678;5.806;2023-05-16T13:43:00;7.05;;;2.28;;
62572;SDS011;48626;51.678;5.806;2023-05-16T13:45:26;6.55;;;1.95;;
62572;SDS011;48626;51.678;5.806;2023-05-16T13:47:53;7.68;;;2.00;;
62572;SDS011;48626;51.678;5.806;2023-05-16T13:50:18;6.72;;;2.13;;
62572;SDS011;48626;51.678;5.806;2023-05-16T13:52:45;9.75;;;2.33;;
62572;SDS011;48626;51.678;5.806;2023-05-16T13:55:11;5.03;;;1.90;;
62572;SDS011;48626;51.678;5.806;2023-05-16T13:57:37;7.97;;;2.47;;
62572;SDS011;48626;51.678;5.806;2023-05-16T14:00:03;7.65;;;2.38;;
62572;SDS011;48626;51.678;5.806;2023-05-16T14:02:36;5.82;;;2.30;;
62572;SDS011;48626;51.678;5.806;2023-05-16T14:05:06;11.02;;;2.47;;
62572;SDS011;48626;51.678;5.806;2023-05-16T14:07:32;8.25;;;2.10;;
62572;SDS011;48626;51.678;5.806;2023-05-16T14:09:58;6.70;;;2.10;;
62572;SDS011;48626;51.678;5.806;2023-05-16T14:12:23;6.22;;;2.28;;
62572;SDS011;48626;51.678;5.806;2023-05-16T14:14:49;7.63;;;2.47;;
62572;SDS011;48626;51.678;5.806;2023-05-16T14:17:15;7.25;;;2.72;;
62572;SDS011;48626;51.678;5.806;2023-05-16T14:19:41;6.65;;;2.33;;
62572;SDS011;48626;51.678;5.806;2023-05-16T14:22:06;7.18;;;2.30;;
62572;SDS011;48626;51.678;5.806;2023-05-16T14:24:32;9.85;;;3.13;;
62572;SDS011;48626;51.678;5.806;2023-05-16T14:26:58;9.88;;;2.50;;
62572;SDS011;48626;51.678;5.806;2023-05-16T14:29:24;11.63;;;2.70;;
62572;SDS011;48626;51.678;5.806;2023-05-16T14:31:50;8.98;;;2.25;;
62572;SDS011;48626;51.678;5.806;2023-05-16T14:34:16;7.47;;;2.03;;
62572;SDS011;48626;51.678;5.806;2023-05-16T14:36:42;6.35;;;2.17;;
62572;SDS011;48626;51.678;5.806;2023-05-16T14:39:07;5.85;;;2.20;;
62572;SDS011;48626;51.678;5.806;2023-05-16T14:41:33;7.53;;;1.95;;
62572;SDS011;48626;51.678;5.806;2023-05-16T14:43:59;7.45;;;2.03;;
62572;SDS011;48626;51.678;5.806;2023-05-16T14:46:25;7.32;;;1.73;;
62572;SDS011;48626;51.678;5.806;2023-05-16T14:48:51;7.03;;;2.10;;
62572;SDS011;48626;51.678;5.806;2023-05-16T14:51:16;9.70;;;1.90;;
62572;SDS011;48626;51.678;5.806;2023-05-16T14:53:42;6.85;;;2.28;;
62572;SDS011;48626;51.678;5.806;2023-05-16T14:56:08;5.70;;;1.85;;
62572;SDS011;48626;51.678;5.806;2023-05-16T14:58:33;10.48;;;2.55;;
62572;SDS011;48626;51.678;5.806;2023-05-16T15:00:59;4.70;;;1.92;;
62572;SDS011;48626;51.678;5.806;2023-05-16T15:03:25;14.23;;;3.17;;